Leukimmi — SY3734 — position and weather

sailwx.info

Track history (hours):
 
Tides and Currents Weather Stations Pressure Air Temp Water Temp Dewpoint Dewpoint Depression Visibility Wind Speed Wind Dir Waves Ship Positions

Leukimmi

Last reported at 2015-Apr-18 06:33 UTC. Time now 2015-Apr-18 07:20 UTC.
Position N 39°27' E 020°08'.

Length 65 m; draft 2.6 m.

Type: Passenger vessel. MMSI: 237671800.

Date/timePositionNaut miles runAvg speedWind from/ knotsBaromVisibWave heightAir tempDewpointWater temp
2015-Apr-18 06:33N 39°27' E 020°08'7 6.6
2015-Apr-18 05:29N 39°30' E 020°16'7 8.0
2015-Apr-18 04:33N 39°26' E 020°08'2 0.2
2015-Apr-17 18:31N 39°25' E 020°06'9 9.2
2015-Apr-17 17:33N 39°30' E 020°15'4 4.0
2015-Apr-17 16:33N 39°28' E 020°10'3 3.3
2015-Apr-17 15:33N 39°27' E 020°07'8 7.6
2015-Apr-17 14:33N 39°30' E 020°16'5 4.8
2015-Apr-17 13:33N 39°28' E 020°10'5 4.6
2015-Apr-17 12:33N 39°25' E 020°06'5 5.3
2015-Apr-17 11:33N 39°29' E 020°10'4 4.1
2015-Apr-17 10:33N 39°30' E 020°15'9 9.0
2015-Apr-17 09:33N 39°25' E 020°06'0 0.0
2015-Apr-16 09:06N 39°25' E 020°06'5 9.0
2015-Apr-16 08:33N 39°28' E 020°10'4 4.5
2015-Apr-16 07:33N 39°30' E 020°16'9 9.2
2015-Apr-16 06:33N 39°25' E 020°06'4 4.2
2015-Apr-16 05:33N 39°28' E 020°10'5 5.0
2015-Apr-16 04:33N 39°30' E 020°16'9 9.2
2015-Apr-16 03:34N 39°25' E 020°06'0 0.0
2015-Apr-15 18:31N 39°25' E 020°06'9 9.5
2015-Apr-15 17:33N 39°30' E 020°16'4 3.9
2015-Apr-15 16:33N 39°29' E 020°11'5 5.3
2015-Apr-15 15:33N 39°25' E 020°06'9 9.0
2015-Apr-15 14:32N 39°30' E 020°16'4 4.2
2015-Apr-15 13:33N 39°29' E 020°11'5 5.3
2015-Apr-15 12:33N 39°25' E 020°06'9 8.9
2015-Apr-15 11:33N 39°30' E 020°15'4 1.8
2015-Apr-15 09:33N 39°29' E 020°11'6 5.6
2015-Apr-15 08:33N 39°25' E 020°06'9 8.7
2015-Apr-15 07:33N 39°30' E 020°15'5 5.0
2015-Apr-15 06:33N 39°28' E 020°09'4 4.0
2015-Apr-15 05:33N 39°25' E 020°06'0 0.0
2015-Apr-14 16:33N 39°25' E 020°06'9 9.2
2015-Apr-14 15:33N 39°30' E 020°16'4 3.7
2015-Apr-14 14:33N 39°29' E 020°11'6 5.7
2015-Apr-14 13:33N 39°25' E 020°06'9 9.1
2015-Apr-14 12:33N 39°30' E 020°16'0 0.0
2015-Apr-14 09:33N 39°30' E 020°16'4 2.2
2015-Apr-14 07:33N 39°28' E 020°10'5 5.0
2015-Apr-14 06:33N 39°25' E 020°06'9 8.9
2015-Apr-14 05:33N 39°30' E 020°15'4 4.3
2015-Apr-14 04:33N 39°28' E 020°10'5 4.7
2015-Apr-14 03:33N 39°25' E 020°06'5 0.5
2015-Apr-13 17:33N 39°28' E 020°10'5 4.8
2015-Apr-13 16:32N 39°30' E 020°16'9 9.2
2015-Apr-13 15:33N 39°25' E 020°06'4 3.9
2015-Apr-13 14:33N 39°28' E 020°10'1 1.0
2015-Apr-13 13:17N 39°29' E 020°11'5 7.3
2015-Apr-13 12:33N 39°25' E 020°06'4 4.1
2015-Apr-13 11:33N 39°28' E 020°10'2 1.1
2015-Apr-13 09:28N 39°29' E 020°12'6 7.1
2015-Apr-13 08:33N 39°25' E 020°06'4 4.2
2015-Apr-13 07:33N 39°28' E 020°10'5 4.9
2015-Apr-13 06:31N 39°30' E 020°16'9 9.4
2015-Apr-13 05:33N 39°25' E 020°06'0 0.0
2015-Apr-12 10:28N 39°25' E 020°06'9 9.6
2015-Apr-12 09:33N 39°30' E 020°15'4 3.6
2015-Apr-12 08:33N 39°29' E 020°11'5 5.4
2015-Apr-12 07:33N 39°25' E 020°06'5 0.2
2015-Apr-11 09:33N 39°28' E 020°10'5 4.4
2015-Apr-11 08:29N 39°30' E 020°16'9 9.7
2015-Apr-11 07:33N 39°25' E 020°06'0 0.1
2015-Apr-11 06:33N 39°25' E 020°06'5 2.3
2015-Apr-11 04:33N 39°28' E 020°10'5 4.6
2015-Apr-11 03:33N 39°25' E 020°06'5 0.4
2015-Apr-10 14:34N 39°28' E 020°10'5 4.7
2015-Apr-10 13:33N 39°30' E 020°16'9 9.0
2015-Apr-10 12:33N 39°25' E 020°06'5 4.9
2015-Apr-10 11:34N 39°28' E 020°11'4 4.2
2015-Apr-10 10:33N 39°30' E 020°16'9 9.2
2015-Apr-10 09:33N 39°25' E 020°06'9 7.4
2015-Apr-10 08:24N 39°30' E 020°15'3 1.8
2015-Apr-10 06:33N 39°29' E 020°11'5 5.2
2015-Apr-10 05:34N 39°25' E 020°06'9 6.1
2015-Apr-10 04:05N 39°30' E 020°16'5 9.2
2015-Apr-10 03:34N 39°28' E 020°10'5 4.6
2015-Apr-10 02:33N 39°25' E 020°06'0 0.0
2015-Apr-09 18:08N 39°25' E 020°06'6 9.5
2015-Apr-09 17:33N 39°29' E 020°11'3 3.3
2015-Apr-09 16:33N 39°30' E 020°15'9 8.8
2015-Apr-09 15:33N 39°25' E 020°06'5 5.4
2015-Apr-09 14:33N 39°29' E 020°11'4 3.9
2015-Apr-09 13:32N 39°30' E 020°16'9 9.3
2015-Apr-09 12:33N 39°25' E 020°06'5 5.1
2015-Apr-09 11:33N 39°28' E 020°11'4 2.0
2015-Apr-09 09:28N 39°30' E 020°16'9 9.5
2015-Apr-09 08:33N 39°25' E 020°06'4 4.4
2015-Apr-09 07:33N 39°28' E 020°10'4 4.5
2015-Apr-09 06:33N 39°30' E 020°16'9 9.0
2015-Apr-09 05:33N 39°25' E 020°06'0 0.0
2015-Apr-08 14:19N 39°25' E 020°06'4 6.0
2015-Apr-08 13:34N 39°28' E 020°10'0 0.2
2015-Apr-08 11:34N 39°28' E 020°10'5 1.0
2015-Apr-08 06:34N 39°25' E 020°06'  
Track history (hours):
 
Tides and Currents Weather Stations Pressure Air Temp Water Temp Dewpoint Dewpoint Depression Visibility Wind Speed Wind Dir Waves Ship Positions

Leukimmi

Last reported at 2015-Apr-18 06:33 UTC. Time now 2015-Apr-18 07:20 UTC.
Position N 39°27' E 020°08'.

Length 65 m; draft 2.6 m.

Type: Passenger vessel. MMSI: 237671800.

Date/timePositionNaut miles runAvg speedWind from/ knotsBaromVisibWave heightAir tempDewpointWater temp
2015-Apr-18 06:33N 39°27' E 020°08'7 6.6
2015-Apr-18 05:29N 39°30' E 020°16'7 8.0
2015-Apr-18 04:33N 39°26' E 020°08'2 0.2
2015-Apr-17 18:31N 39°25' E 020°06'9 9.2
2015-Apr-17 17:33N 39°30' E 020°15'4 4.0
2015-Apr-17 16:33N 39°28' E 020°10'3 3.3
2015-Apr-17 15:33N 39°27' E 020°07'8 7.6
2015-Apr-17 14:33N 39°30' E 020°16'5 4.8
2015-Apr-17 13:33N 39°28' E 020°10'5 4.6
2015-Apr-17 12:33N 39°25' E 020°06'5 5.3
2015-Apr-17 11:33N 39°29' E 020°10'4 4.1
2015-Apr-17 10:33N 39°30' E 020°15'9 9.0
2015-Apr-17 09:33N 39°25' E 020°06'0 0.0
2015-Apr-16 09:06N 39°25' E 020°06'5 9.0
2015-Apr-16 08:33N 39°28' E 020°10'4 4.5
2015-Apr-16 07:33N 39°30' E 020°16'9 9.2
2015-Apr-16 06:33N 39°25' E 020°06'4 4.2
2015-Apr-16 05:33N 39°28' E 020°10'5 5.0
2015-Apr-16 04:33N 39°30' E 020°16'9 9.2
2015-Apr-16 03:34N 39°25' E 020°06'0 0.0
2015-Apr-15 18:31N 39°25' E 020°06'9 9.5
2015-Apr-15 17:33N 39°30' E 020°16'4 3.9
2015-Apr-15 16:33N 39°29' E 020°11'5 5.3
2015-Apr-15 15:33N 39°25' E 020°06'9 9.0
2015-Apr-15 14:32N 39°30' E 020°16'4 4.2
2015-Apr-15 13:33N 39°29' E 020°11'5 5.3
2015-Apr-15 12:33N 39°25' E 020°06'9 8.9
2015-Apr-15 11:33N 39°30' E 020°15'4 1.8
2015-Apr-15 09:33N 39°29' E 020°11'6 5.6
2015-Apr-15 08:33N 39°25' E 020°06'9 8.7
2015-Apr-15 07:33N 39°30' E 020°15'5 5.0
2015-Apr-15 06:33N 39°28' E 020°09'4 4.0
2015-Apr-15 05:33N 39°25' E 020°06'0 0.0
2015-Apr-14 16:33N 39°25' E 020°06'9 9.2
2015-Apr-14 15:33N 39°30' E 020°16'4 3.7
2015-Apr-14 14:33N 39°29' E 020°11'6 5.7
2015-Apr-14 13:33N 39°25' E 020°06'9 9.1
2015-Apr-14 12:33N 39°30' E 020°16'0 0.0
2015-Apr-14 09:33N 39°30' E 020°16'4 2.2
2015-Apr-14 07:33N 39°28' E 020°10'5 5.0
2015-Apr-14 06:33N 39°25' E 020°06'9 8.9
2015-Apr-14 05:33N 39°30' E 020°15'4 4.3
2015-Apr-14 04:33N 39°28' E 020°10'5 4.7
2015-Apr-14 03:33N 39°25' E 020°06'5 0.5
2015-Apr-13 17:33N 39°28' E 020°10'5 4.8
2015-Apr-13 16:32N 39°30' E 020°16'9 9.2
2015-Apr-13 15:33N 39°25' E 020°06'4 3.9
2015-Apr-13 14:33N 39°28' E 020°10'1 1.0
2015-Apr-13 13:17N 39°29' E 020°11'5 7.3
2015-Apr-13 12:33N 39°25' E 020°06'4 4.1
2015-Apr-13 11:33N 39°28' E 020°10'2 1.1
2015-Apr-13 09:28N 39°29' E 020°12'6 7.1
2015-Apr-13 08:33N 39°25' E 020°06'4 4.2
2015-Apr-13 07:33N 39°28' E 020°10'5 4.9
2015-Apr-13 06:31N 39°30' E 020°16'9 9.4
2015-Apr-13 05:33N 39°25' E 020°06'0 0.0
2015-Apr-12 10:28N 39°25' E 020°06'9 9.6
2015-Apr-12 09:33N 39°30' E 020°15'4 3.6
2015-Apr-12 08:33N 39°29' E 020°11'5 5.4
2015-Apr-12 07:33N 39°25' E 020°06'5 0.2
2015-Apr-11 09:33N 39°28' E 020°10'5 4.4
2015-Apr-11 08:29N 39°30' E 020°16'9 9.7
2015-Apr-11 07:33N 39°25' E 020°06'0 0.1
2015-Apr-11 06:33N 39°25' E 020°06'5 2.3
2015-Apr-11 04:33N 39°28' E 020°10'5 4.6
2015-Apr-11 03:33N 39°25' E 020°06'5 0.4
2015-Apr-10 14:34N 39°28' E 020°10'5 4.7
2015-Apr-10 13:33N 39°30' E 020°16'9 9.0
2015-Apr-10 12:33N 39°25' E 020°06'5 4.9
2015-Apr-10 11:34N 39°28' E 020°11'4 4.2
2015-Apr-10 10:33N 39°30' E 020°16'9 9.2
2015-Apr-10 09:33N 39°25' E 020°06'9 7.4
2015-Apr-10 08:24N 39°30' E 020°15'3 1.8
2015-Apr-10 06:33N 39°29' E 020°11'5 5.2
2015-Apr-10 05:34N 39°25' E 020°06'9 6.1
2015-Apr-10 04:05N 39°30' E 020°16'5 9.2
2015-Apr-10 03:34N 39°28' E 020°10'5 4.6
2015-Apr-10 02:33N 39°25' E 020°06'0 0.0
2015-Apr-09 18:08N 39°25' E 020°06'6 9.5
2015-Apr-09 17:33N 39°29' E 020°11'3 3.3
2015-Apr-09 16:33N 39°30' E 020°15'9 8.8
2015-Apr-09 15:33N 39°25' E 020°06'5 5.4
2015-Apr-09 14:33N 39°29' E 020°11'4 3.9
2015-Apr-09 13:32N 39°30' E 020°16'9 9.3
2015-Apr-09 12:33N 39°25' E 020°06'5 5.1
2015-Apr-09 11:33N 39°28' E 020°11'4 2.0
2015-Apr-09 09:28N 39°30' E 020°16'9 9.5
2015-Apr-09 08:33N 39°25' E 020°06'4 4.4
2015-Apr-09 07:33N 39°28' E 020°10'4 4.5
2015-Apr-09 06:33N 39°30' E 020°16'9 9.0
2015-Apr-09 05:33N 39°25' E 020°06'0 0.0
2015-Apr-08 14:19N 39°25' E 020°06'4 6.0
2015-Apr-08 13:34N 39°28' E 020°10'0 0.2
2015-Apr-08 11:34N 39°28' E 020°10'5 1.0
2015-Apr-08 06:34N 39°25' E 020°06'  

Dump ship's entire track history